DTTA/TUN METAR and TAF weather

Enter ICAO airport designator
Station Type Date Time Source
DTTA METAR 2022/12/10 01:30 UTC NOAA

DTTA 100130Z 15006KT 9999 FEW026 20/12 Q1005


Station Type Date Time Source
DTTA Decoded METAR 2022/12/10 01:30 UTC NOAA

Tunis-Carthage, Tunisia (DTTA) 36-50N 010-14E 4M
Dec 09, 2022 - 08:30 PM EST / 2022.12.10 0130 UTC
Wind: from the SSE (150 degrees) at 7 MPH (6 KT):0
Visibility: greater than 7 mile(s):0
Sky conditions: mostly clear
Temperature: 68 F (20 C)
Dew Point: 53 F (12 C)
Relative Humidity: 59%
Pressure (altimeter): 29.68 in. Hg (1005 hPa)
ob: DTTA 100130Z 15006KT 9999 FEW026 20/12 Q1005
cycle: 1

Station Type Date Time Source
DTTA TAF 2022/12/09 18:42 UTC NOAA

TAF DTTA 091700Z 0918/1018 20004KT 9999 SCT026 PROB30
TEMPO 1000/1004 22015G30KT

Example: see airport list